»·PEaware :: SKW5395 KFAT-KSFO

SKW5395 :: KFAT-KSFO

FLIGHT INFORMATION

Flight Status: Arrived
Operator:
SkyWest Airlines
More flights by this operator :: More flights under this callsign
Pilot: Charles D. (23067)
Aircraft: EMBRAER EMB-170/175
(E170)
More flights by this aircraft type
Origin: KFAT Fresno Yosemite Intl
United States
Destination: KSFO San Francisco Intl
United States
More flights between these airports :: More routes between these airports
Route: YOSE3 CZQ ALWYS CEDES ARCHI
File this flight plan on PilotEdge
Remarks: RMK / SIMBRIEF
Altitude:
(Current/Filed)
20,000ft
Speed:
(Current/Filed)
343kts
Departed: 16-Jul-19 03:54 PM
Arrived: 16-Jul-19 04:23 PM
Distance/Time
Traveled:
137nm/0:29
Distance/Time
To Go:
Arrived

Flight Plot

Page will automatically refresh every two minutes.

Flight plan parsing failed; only flown route is shown


Map Options




Map Legend


Flown Route
Filed Route
Departure Airport
Arrival Airport
Navaid (VOR, NDB)
Fix

Horizontal Profiles

Position Reports

Time Latitude Longitude Heading Altitude Ground
Speed
16-Jul-19 15:41 36.770777 -119.718387 311 341ft 0kts
16-Jul-19 15:42 36.770777 -119.718387 311 341ft 0kts
16-Jul-19 15:43 36.770777 -119.718387 311 341ft 0kts
16-Jul-19 15:44 36.770777 -119.718387 311 341ft 0kts
16-Jul-19 15:45 36.770777 -119.718387 311 341ft 0kts
16-Jul-19 15:46 36.770777 -119.718387 311 341ft 0kts
16-Jul-19 15:47 36.770777 -119.718387 311 341ft 0kts
16-Jul-19 15:48 36.770821 -119.718409 352 341ft 4kts
16-Jul-19 15:49 36.771533 -119.716831 47 341ft 11kts
16-Jul-19 15:50 36.770588 -119.713040 124 341ft 10kts
16-Jul-19 15:51 36.768447 -119.709344 125 341ft 16kts
16-Jul-19 15:52 36.767582 -119.705875 86 341ft 9kts
16-Jul-19 15:53 36.775609 -119.715485 305 380ft 165kts
16-Jul-19 15:54 36.807496 -119.774161 304 3868ft 245kts
16-Jul-19 15:55 36.849484 -119.847467 310 7288ft 262kts
16-Jul-19 15:56 36.897655 -119.915153 310 10703ft 274kts
16-Jul-19 15:57 36.952086 -119.991279 310 14153ft 317kts
16-Jul-19 15:58 37.013744 -120.077686 308 17605ft 346kts
16-Jul-19 15:59 37.080944 -120.172220 308 19923ft 385kts
16-Jul-19 16:00 37.156747 -120.279103 308 19921ft 414kts
16-Jul-19 16:01 37.233484 -120.387665 308 19916ft 416kts
16-Jul-19 16:02 37.310083 -120.496396 308 19916ft 416kts
16-Jul-19 16:03 37.386733 -120.605569 308 19922ft 417kts
16-Jul-19 16:04 37.463984 -120.715970 307 19926ft 417kts
16-Jul-19 16:05 37.540144 -120.825176 307 19920ft 416kts
16-Jul-19 16:06 37.608298 -120.941348 288 19917ft 407kts
16-Jul-19 16:07 37.625186 -121.076793 257 19916ft 390kts
16-Jul-19 16:08 37.602735 -121.210432 261 19916ft 390kts
16-Jul-19 16:09 37.585983 -121.345276 262 19803ft 392kts
16-Jul-19 16:10 37.569671 -121.475511 262 18301ft 354kts
16-Jul-19 16:11 37.554708 -121.593992 262 16538ft 338kts
16-Jul-19 16:12 37.531748 -121.704419 254 14688ft 320kts
16-Jul-19 16:13 37.507626 -121.809626 263 12712ft 302kts
16-Jul-19 16:14 37.509850 -121.904194 273 10194ft 263kts
16-Jul-19 16:15 37.513090 -121.991767 273 7662ft 233kts
16-Jul-19 16:16 37.516030 -122.072749 273 5227ft 246kts
16-Jul-19 16:17 37.527861 -122.151156 293 3644ft 213kts
16-Jul-19 16:18 37.554032 -122.215629 296 2558ft 201kts
16-Jul-19 16:19 37.579294 -122.275608 295 1540ft 174kts
16-Jul-19 16:20 37.598848 -122.322097 293 682ft 123kts
16-Jul-19 16:21 37.613064 -122.355952 289 77ft 102kts
16-Jul-19 16:22 37.620827 -122.374590 300 20ft 36kts
16-Jul-19 16:23 37.622263 -122.380793 276 20ft 0kts
16-Jul-19 16:24 37.622274 -122.380918 275 20ft 7kts
16-Jul-19 16:25 37.621988 -122.386032 238 20ft 14kts
16-Jul-19 16:26 37.621087 -122.386844 207 20ft 0kts
16-Jul-19 16:27 37.621087 -122.386844 208 20ft 0kts
16-Jul-19 16:28 37.621087 -122.386844 208 20ft 0kts
16-Jul-19 16:29 37.621087 -122.386844 208 20ft 0kts
16-Jul-19 16:30 37.621087 -122.386844 208 20ft 0kts
16-Jul-19 16:31 37.621087 -122.386844 208 20ft 0kts

Navigation Log

Ident Type
Flight plan parsing failed, navigation log unavailable